CheckWX is a tool to help pilots better visualize weather data.  It is not intended as a substitute for an official pre-flight weather briefing.

23:13:50 UTC

OETR METAR
Turaif Domestic Airport
Saudi Arabia
Current

1 hour ago

OETR 192200Z 27008KT CAVOK 25/15 Q1012
Observed
Jul-19 @ 22:00 UTC
Wind
  • 270° at 8 KTS
Visibility
10,000+ meters
Flight Rules
VFR
Cloud Levels
  • Clear skies
Temperature
25°C / 77°F
Dewpoint
15°C / 59°F
Humidity
54%
Altimeter
29.88" Hg
Pressure
1011.92 hPa
Previous

2 hours ago

OETR 192100Z 27008KT CAVOK 26/13 Q1012
Observed
Jul-19 @ 21:00 UTC
Wind
  • 270° at 8 KTS
Visibility
10,000+ meters
Flight Rules
VFR
Cloud Levels
  • Clear skies
Temperature
26°C / 79°F
Dewpoint
13°C / 55°F
Humidity
45%
Altimeter
29.88" Hg
Pressure
1011.92 hPa
Previous

3 hours ago

OETR 192000Z 32004KT CAVOK 28/10 Q1012
Observed
Jul-19 @ 20:00 UTC
Wind
  • 320° at 4 KTS
Visibility
10,000+ meters
Flight Rules
VFR
Cloud Levels
  • Clear skies
Temperature
28°C / 82°F
Dewpoint
10°C / 50°F
Humidity
32%
Altimeter
29.88" Hg
Pressure
1011.92 hPa